Time;durP1;ratioP1;P1;durP2;ratioP2;P2;SDS_P1;SDS_P2;PMS_P1;PMS_P2;Temp;Humidity;BMP_temperature;BMP_pressure;BME280_temperature;BME280_humidity;BME280_pressure;Samples;Min_cycle;Max_cycle;Signal;HPM_P1;HPM_P2
2022/07/07 00:00:00;;;;;;;10.90;6.13;;;;;;;;;;5010513;28;95190;-75
2022/07/07 00:02:27;;;;;;;13.00;6.15;;;;;;;;;;5005767;28;96740;-77
2022/07/07 00:04:53;;;;;;;13.25;6.10;;;;;;;;;;5009348;28;97787;-76
2022/07/07 00:07:20;;;;;;;13.73;5.82;;;;;;;;;;5012660;28;95508;-76
2022/07/07 00:09:46;;;;;;;12.23;6.40;;;;;;;;;;5011687;28;97122;-76
2022/07/07 00:12:13;;;;;;;10.98;6.32;;;;;;;;;;5005773;28;97317;-76
2022/07/07 00:14:39;;;;;;;10.27;6.18;;;;;;;;;;5004490;28;97086;-76
2022/07/07 00:17:05;;;;;;;11.07;6.15;;;;;;;;;;4997470;28;97271;-76
2022/07/07 00:19:32;;;;;;;15.88;5.90;;;;;;;;;;5009935;28;95830;-76
2022/07/07 00:21:58;;;;;;;10.20;6.43;;;;;;;;;;5010711;28;96415;-77
2022/07/07 00:24:25;;;;;;;11.88;6.07;;;;;;;;;;5006787;28;96912;-76
2022/07/07 00:26:51;;;;;;;11.38;6.05;;;;;;;;;;5012355;28;95472;-76
2022/07/07 00:29:17;;;;;;;11.80;6.10;;;;;;;;;;5003551;28;97445;-75
2022/07/07 00:31:43;;;;;;;13.05;6.57;;;;;;;;;;4992835;28;97525;-76
2022/07/07 00:34:10;;;;;;;10.98;6.07;;;;;;;;;;4995842;28;95341;-76
2022/07/07 00:36:39;;;;;;;12.60;6.38;;;;;;;;;;4991704;28;97764;-76
2022/07/07 00:39:05;;;;;;;11.40;6.00;;;;;;;;;;4993168;28;96563;-76
2022/07/07 00:41:32;;;;;;;10.98;6.00;;;;;;;;;;4992131;28;96838;-75
2022/07/07 00:43:59;;;;;;;9.75;5.82;;;;;;;;;;4991719;28;96203;-76
2022/07/07 00:46:28;;;;;;;13.70;5.88;;;;;;;;;;4992107;28;95353;-76
2022/07/07 00:48:54;;;;;;;10.85;5.05;;;;;;;;;;4992314;28;96866;-76
2022/07/07 00:51:20;;;;;;;11.85;5.45;;;;;;;;;;4990291;28;96274;-75
2022/07/07 00:53:47;;;;;;;10.50;5.30;;;;;;;;;;4996128;28;97253;-73
2022/07/07 00:56:13;;;;;;;10.32;5.20;;;;;;;;;;4994653;28;97206;-77
2022/07/07 00:58:39;;;;;;;10.65;5.45;;;;;;;;;;4991909;28;95799;-76
2022/07/07 01:01:06;;;;;;;10.48;4.68;;;;;;;;;;4992124;28;97052;-77
2022/07/07 01:03:33;;;;;;;9.27;5.35;;;;;;;;;;5000691;28;97732;-77
2022/07/07 01:05:59;;;;;;;8.85;4.45;;;;;;;;;;4991532;28;95666;-77
2022/07/07 01:08:26;;;;;;;8.82;4.20;;;;;;;;;;5001932;28;96650;-75
2022/07/07 01:10:53;;;;;;;9.35;4.93;;;;;;;;;;5012351;28;97327;-77
2022/07/07 01:13:19;;;;;;;9.10;3.90;;;;;;;;;;5005936;28;95266;-77
2022/07/07 01:15:45;;;;;;;9.20;4.55;;;;;;;;;;5003203;28;97231;-77
2022/07/07 01:18:12;;;;;;;7.57;3.90;;;;;;;;;;5011516;28;95211;-77
2022/07/07 01:20:41;;;;;;;5.60;3.33;;;;;;;;;;4996837;28;96849;-77
2022/07/07 01:23:08;;;;;;;9.68;3.90;;;;;;;;;;5009239;28;97200;-77
2022/07/07 01:25:34;;;;;;;7.90;3.67;;;;;;;;;;4994546;28;95558;-76
2022/07/07 01:28:00;;;;;;;6.88;3.38;;;;;;;;;;5022649;28;96026;-75
2022/07/07 01:30:27;;;;;;;7.30;3.50;;;;;;;;;;5034808;28;96215;-75
2022/07/07 01:32:53;;;;;;;8.75;3.65;;;;;;;;;;5035223;27;95021;-75
2022/07/07 01:35:19;;;;;;;10.30;3.53;;;;;;;;;;5001615;27;96828;-75
2022/07/07 01:37:45;;;;;;;9.25;3.20;;;;;;;;;;4998045;28;97526;-76
2022/07/07 01:40:12;;;;;;;7.10;2.92;;;;;;;;;;4994540;28;96677;-75
2022/07/07 01:42:38;;;;;;;11.40;3.00;;;;;;;;;;5030914;28;97124;-76
2022/07/07 01:45:05;;;;;;;7.38;2.40;;;;;;;;;;5002621;27;95357;-76
2022/07/07 01:47:31;;;;;;;8.52;2.20;;;;;;;;;;5002840;28;96795;-75
2022/07/07 01:49:58;;;;;;;5.07;2.00;;;;;;;;;;4995337;28;96910;-74
2022/07/07 01:52:24;;;;;;;3.45;1.67;;;;;;;;;;4994036;28;95178;-75
2022/07/07 01:54:50;;;;;;;5.03;1.73;;;;;;;;;;4994070;28;96980;-75
2022/07/07 01:57:17;;;;;;;4.38;2.13;;;;;;;;;;4995150;28;97455;-77
2022/07/07 01:59:43;;;;;;;6.47;2.05;;;;;;;;;;4999023;28;95104;-76
2022/07/07 02:02:09;;;;;;;6.97;2.05;;;;;;;;;;5014605;28;97342;-77
2022/07/07 02:04:36;;;;;;;3.35;1.80;;;;;;;;;;5010738;28;95319;-76
2022/07/07 02:07:02;;;;;;;3.78;1.77;;;;;;;;;;4993893;28;96898;-77
2022/07/07 02:09:29;;;;;;;4.40;1.90;;;;;;;;;;5012381;28;97320;-77
2022/07/07 02:11:55;;;;;;;4.75;2.15;;;;;;;;;;5014084;28;95285;-77
2022/07/07 02:14:21;;;;;;;4.97;2.10;;;;;;;;;;5008177;28;96844;-76
2022/07/07 02:16:48;;;;;;;5.57;2.10;;;;;;;;;;4995473;28;96461;-76
2022/07/07 02:19:14;;;;;;;4.18;2.10;;;;;;;;;;4994427;28;95346;-76
2022/07/07 02:21:41;;;;;;;5.53;2.15;;;;;;;;;;5011998;28;96567;-76
2022/07/07 02:24:07;;;;;;;5.65;2.10;;;;;;;;;;4993815;28;95235;-76
2022/07/07 02:26:33;;;;;;;5.10;2.35;;;;;;;;;;4995173;28;97029;-77
2022/07/07 02:29:01;;;;;;;3.53;2.20;;;;;;;;;;4993407;28;97283;-77
2022/07/07 02:31:27;;;;;;;6.43;2.40;;;;;;;;;;4994379;28;95245;-76
2022/07/07 02:33:54;;;;;;;9.25;3.10;;;;;;;;;;4994070;28;96729;-77
2022/07/07 02:36:20;;;;;;;4.50;2.58;;;;;;;;;;4994014;28;97272;-76
2022/07/07 02:38:48;;;;;;;6.82;2.55;;;;;;;;;;4998348;28;95396;-76
2022/07/07 02:41:14;;;;;;;8.70;3.00;;;;;;;;;;5014284;28;96961;-76
2022/07/07 02:43:40;;;;;;;4.45;2.60;;;;;;;;;;5016441;28;97693;-76
2022/07/07 02:46:06;;;;;;;6.90;2.60;;;;;;;;;;5004754;28;96801;-76
2022/07/07 02:48:33;;;;;;;6.47;3.10;;;;;;;;;;5013379;28;97327;-77
2022/07/07 02:50:59;;;;;;;7.60;2.92;;;;;;;;;;5012398;28;95390;-76
2022/07/07 02:53:26;;;;;;;6.65;2.92;;;;;;;;;;4999730;28;96823;-75
2022/07/07 02:55:53;;;;;;;6.63;2.90;;;;;;;;;;4999743;28;97269;-76
2022/07/07 02:58:19;;;;;;;5.05;3.00;;;;;;;;;;5012531;28;95161;-77
2022/07/07 03:00:47;;;;;;;7.10;3.25;;;;;;;;;;5002832;28;96783;-76
2022/07/07 03:03:13;;;;;;;6.35;2.90;;;;;;;;;;5005865;28;96112;-77
2022/07/07 03:05:40;;;;;;;5.97;2.95;;;;;;;;;;5004842;28;96805;-76
2022/07/07 03:08:06;;;;;;;11.27;3.45;;;;;;;;;;5025290;28;97298;-76
2022/07/07 03:10:33;;;;;;;5.55;2.95;;;;;;;;;;4994023;28;95689;-77
2022/07/07 03:12:59;;;;;;;4.80;3.17;;;;;;;;;;4993624;28;96793;-76
2022/07/07 03:15:26;;;;;;;7.35;3.25;;;;;;;;;;4992401;28;97551;-76
2022/07/07 03:17:52;;;;;;;9.15;3.95;;;;;;;;;;4992850;28;95206;-76
2022/07/07 03:20:19;;;;;;;10.43;3.65;;;;;;;;;;4993436;28;95781;-77
2022/07/07 03:22:46;;;;;;;10.05;3.80;;;;;;;;;;4993150;28;97303;-77
2022/07/07 03:25:12;;;;;;;10.02;3.70;;;;;;;;;;4995702;28;96724;-77
2022/07/07 03:27:39;;;;;;;5.82;3.40;;;;;;;;;;4993939;28;97454;-75
2022/07/07 03:30:06;;;;;;;7.15;3.10;;;;;;;;;;4993935;28;95348;-77
2022/07/07 03:32:32;;;;;;;9.23;3.80;;;;;;;;;;4992625;28;96819;-77
2022/07/07 03:34:59;;;;;;;6.22;3.53;;;;;;;;;;4992809;28;97504;-77
2022/07/07 03:37:25;;;;;;;6.63;3.65;;;;;;;;;;4995034;28;95672;-77
2022/07/07 03:39:51;;;;;;;8.15;3.63;;;;;;;;;;4992671;28;96794;-76
2022/07/07 03:42:18;;;;;;;6.05;3.53;;;;;;;;;;4993641;28;97327;-76
2022/07/07 03:44:44;;;;;;;10.07;3.65;;;;;;;;;;4992145;28;95418;-75
2022/07/07 03:47:13;;;;;;;11.57;3.38;;;;;;;;;;4995640;28;96145;-76
2022/07/07 03:49:47;;;;;;;10.50;3.03;;;;;;;;;;5006166;28;95879;-76
2022/07/07 03:52:13;;;;;;;8.77;3.00;;;;;;;;;;5012564;28;97692;-77
2022/07/07 03:54:39;;;;;;;8.75;2.90;;;;;;;;;;5011037;28;97266;-76
2022/07/07 03:57:06;;;;;;;7.53;2.83;;;;;;;;;;5000006;28;95229;-75
2022/07/07 03:59:32;;;;;;;6.32;2.40;;;;;;;;;;5003466;28;96848;-76
2022/07/07 04:01:58;;;;;;;5.07;2.40;;;;;;;;;;5011600;28;97479;-76
2022/07/07 04:04:25;;;;;;;5.72;2.20;;;;;;;;;;5011650;28;95143;-76
2022/07/07 04:06:51;;;;;;;6.38;2.10;;;;;;;;;;5008647;28;95788;-76
2022/07/07 04:09:17;;;;;;;12.18;2.60;;;;;;;;;;5015034;28;97516;-76
2022/07/07 04:11:44;;;;;;;5.82;1.92;;;;;;;;;;5011827;28;97226;-76
2022/07/07 04:14:10;;;;;;;8.40;1.90;;;;;;;;;;5012141;28;97302;-76
2022/07/07 04:16:36;;;;;;;6.88;2.05;;;;;;;;;;5004673;28;96221;-76
2022/07/07 04:19:03;;;;;;;5.00;1.77;;;;;;;;;;5000379;28;96915;-76
2022/07/07 04:21:29;;;;;;;4.68;1.60;;;;;;;;;;5011421;28;97455;-76
2022/07/07 04:23:55;;;;;;;10.98;1.90;;;;;;;;;;5012439;28;95332;-76
2022/07/07 04:26:22;;;;;;;5.25;2.10;;;;;;;;;;5008742;28;96802;-75
2022/07/07 19:22:03;;;;;;;19.67;2.33;;;;;;;;;;4988785;27;1287125;-77
2022/07/07 19:24:29;;;;;;;11.82;2.70;;;;;;;;;;5024834;28;96179;-76
2022/07/07 19:26:56;;;;;;;7.25;1.98;;;;;;;;;;5017715;28;96421;-77
2022/07/07 19:29:22;;;;;;;6.57;1.67;;;;;;;;;;5004787;28;96891;-77
2022/07/07 19:31:48;;;;;;;9.02;2.30;;;;;;;;;;5010366;28;97382;-77
2022/07/07 19:34:15;;;;;;;13.88;2.45;;;;;;;;;;5016684;28;95955;-76
2022/07/07 19:36:41;;;;;;;8.43;2.00;;;;;;;;;;5018111;28;96775;-77
2022/07/07 19:39:08;;;;;;;8.88;1.70;;;;;;;;;;5019068;28;97431;-76
2022/07/07 19:41:35;;;;;;;10.63;1.73;;;;;;;;;;5001540;28;97874;-74
2022/07/07 19:44:02;;;;;;;7.15;1.75;;;;;;;;;;5016652;28;97298;-74
2022/07/07 20:17:53;;;;;;;9.75;1.70;;;;;;;;;;5068662;27;1285173;-76
2022/07/07 20:20:19;;;;;;;9.93;1.90;;;;;;;;;;5070293;27;96409;-76
2022/07/07 20:22:46;;;;;;;13.45;2.05;;;;;;;;;;5087156;27;95376;-77
2022/07/07 20:25:13;;;;;;;7.40;1.88;;;;;;;;;;5087009;27;96011;-77
2022/07/07 20:27:39;;;;;;;7.88;1.67;;;;;;;;;;5090571;27;97746;-77
2022/07/07 20:30:06;;;;;;;10.35;1.90;;;;;;;;;;5086906;27;95405;-77
2022/07/07 20:32:32;;;;;;;8.10;1.85;;;;;;;;;;5090454;27;96355;-77
2022/07/07 20:34:59;;;;;;;7.55;1.90;;;;;;;;;;5086174;27;97165;-76
2022/07/07 20:37:25;;;;;;;6.20;1.90;;;;;;;;;;5092149;27;95151;-76
2022/07/07 20:39:51;;;;;;;12.00;1.92;;;;;;;;;;5088335;27;97456;-77
2022/07/07 20:42:18;;;;;;;8.50;1.67;;;;;;;;;;5084513;27;95396;-77
2022/07/07 20:44:44;;;;;;;9.73;2.00;;;;;;;;;;5072885;27;97209;-76
2022/07/07 20:47:11;;;;;;;8.65;2.10;;;;;;;;;;5090777;27;97301;-77
2022/07/07 20:49:39;;;;;;;5.78;1.77;;;;;;;;;;5084291;27;96656;-76
2022/07/07 20:52:05;;;;;;;10.68;2.00;;;;;;;;;;5075967;27;96477;-77
2022/07/07 20:54:32;;;;;;;12.13;2.17;;;;;;;;;;5075730;27;96201;-77
2022/07/07 20:57:00;;;;;;;10.15;1.80;;;;;;;;;;5071154;27;95359;-75
2022/07/07 20:59:26;;;;;;;10.63;2.20;;;;;;;;;;5076199;27;95850;-77
2022/07/07 21:02:13;;;;;;;10.73;2.05;;;;;;;;;;5078718;27;96008;-77
2022/07/07 21:04:40;;;;;;;10.13;2.10;;;;;;;;;;5076853;27;96650;-77
2022/07/07 21:07:07;;;;;;;8.27;2.13;;;;;;;;;;5074336;27;97636;-76
2022/07/07 21:09:34;;;;;;;9.77;2.10;;;;;;;;;;5080200;27;95388;-77
2022/07/07 21:12:01;;;;;;;11.75;2.10;;;;;;;;;;5071586;27;98639;-77
2022/07/07 21:14:27;;;;;;;9.75;2.00;;;;;;;;;;5074352;27;97324;-76
2022/07/07 21:16:54;;;;;;;12.30;1.95;;;;;;;;;;5080394;27;95308;-75
2022/07/07 21:19:20;;;;;;;7.55;2.28;;;;;;;;;;5080781;27;96911;-74
2022/07/07 21:21:46;;;;;;;8.95;2.25;;;;;;;;;;5077958;27;97306;-76
2022/07/07 21:24:13;;;;;;;11.43;2.30;;;;;;;;;;5071290;27;95518;-74
2022/07/07 21:26:39;;;;;;;9.40;1.90;;;;;;;;;;5086086;27;97366;-75
2022/07/07 21:29:06;;;;;;;8.63;2.15;;;;;;;;;;5065507;27;95051;-77
2022/07/07 21:31:32;;;;;;;9.75;2.40;;;;;;;;;;5068066;27;96844;-77
2022/07/07 21:33:59;;;;;;;7.25;1.70;;;;;;;;;;5073493;27;96184;-76
2022/07/07 21:36:26;;;;;;;10.00;2.55;;;;;;;;;;5060561;27;95294;-77
2022/07/07 21:38:52;;;;;;;14.27;2.33;;;;;;;;;;5066957;27;96965;-77
2022/07/07 21:41:19;;;;;;;12.73;2.60;;;;;;;;;;5056957;27;95151;-77
2022/07/07 21:43:45;;;;;;;10.77;2.17;;;;;;;;;;5058885;27;95982;-77
2022/07/07 21:46:11;;;;;;;9.05;2.15;;;;;;;;;;5072076;27;96923;-75
2022/07/07 21:48:38;;;;;;;11.32;2.20;;;;;;;;;;5059318;27;95592;-75
2022/07/07 21:51:04;;;;;;;8.20;1.90;;;;;;;;;;5067444;27;95649;-77
2022/07/07 21:53:31;;;;;;;10.77;2.17;;;;;;;;;;5069435;27;97227;-77
2022/07/07 21:55:59;;;;;;;11.10;2.03;;;;;;;;;;5070361;27;95287;-75
2022/07/07 21:58:27;;;;;;;8.30;2.15;;;;;;;;;;5073769;27;95386;-76
2022/07/07 22:00:54;;;;;;;10.95;1.88;;;;;;;;;;5063937;27;97637;-76
2022/07/07 22:08:51;;;;;;;10.30;1.92;;;;;;;;;;5066704;27;95129;-76
2022/07/07 22:11:17;;;;;;;12.65;2.38;;;;;;;;;;5066054;27;96913;-76
2022/07/07 22:13:44;;;;;;;9.13;1.60;;;;;;;;;;5058813;27;97283;-76
2022/07/07 22:16:13;;;;;;;8.38;1.77;;;;;;;;;;5064499;27;95380;-74
2022/07/07 22:18:40;;;;;;;8.25;1.77;;;;;;;;;;5068336;27;99984;-76
2022/07/07 22:21:07;;;;;;;7.18;1.95;;;;;;;;;;5065289;27;95250;-77
2022/07/07 22:23:34;;;;;;;9.02;1.52;;;;;;;;;;5069359;27;95260;-74
2022/07/07 22:26:01;;;;;;;9.70;1.75;;;;;;;;;;5068979;27;96251;-75
2022/07/07 22:28:27;;;;;;;5.63;1.60;;;;;;;;;;5072318;27;95312;-75
2022/07/07 22:30:54;;;;;;;12.57;1.80;;;;;;;;;;5054242;27;96827;-76
2022/07/07 22:33:21;;;;;;;6.78;1.80;;;;;;;;;;5069919;27;96421;-76
2022/07/07 22:35:47;;;;;;;8.10;2.00;;;;;;;;;;5069608;27;95371;-75
2022/07/07 22:38:13;;;;;;;10.65;2.00;;;;;;;;;;5073424;27;96844;-76
2022/07/07 22:40:41;;;;;;;9.00;2.05;;;;;;;;;;5067133;27;97617;-76
2022/07/07 22:43:09;;;;;;;8.95;1.50;;;;;;;;;;5064576;27;95398;-75
2022/07/07 22:45:35;;;;;;;12.23;1.90;;;;;;;;;;5059714;27;103352;-76
2022/07/07 22:48:01;;;;;;;11.60;1.80;;;;;;;;;;5074006;27;97452;-76
2022/07/07 22:50:28;;;;;;;5.40;1.45;;;;;;;;;;5059939;27;95918;-75
2022/07/07 22:52:54;;;;;;;5.97;1.92;;;;;;;;;;5064428;27;97265;-76
2022/07/07 22:55:20;;;;;;;9.98;2.13;;;;;;;;;;5055528;27;97565;-74
2022/07/07 22:57:47;;;;;;;8.70;1.80;;;;;;;;;;5070229;27;96762;-76
2022/07/07 23:00:13;;;;;;;7.38;1.70;;;;;;;;;;5066571;27;97190;-76
2022/07/07 23:02:39;;;;;;;11.65;2.10;;;;;;;;;;5067043;27;95413;-75
2022/07/07 23:05:06;;;;;;;5.60;1.50;;;;;;;;;;5060294;27;96800;-75
2022/07/07 23:07:33;;;;;;;9.18;1.80;;;;;;;;;;5066385;27;97446;-76
2022/07/07 23:10:00;;;;;;;7.10;1.77;;;;;;;;;;5070577;27;96190;-74
2022/07/07 23:12:26;;;;;;;10.15;2.00;;;;;;;;;;5068389;27;97280;-74
2022/07/07 23:14:53;;;;;;;6.47;1.80;;;;;;;;;;5063090;27;95334;-75
2022/07/07 23:17:20;;;;;;;12.13;2.33;;;;;;;;;;5063674;27;96478;-75
2022/07/07 23:19:47;;;;;;;7.78;1.70;;;;;;;;;;5062994;27;97510;-74
2022/07/07 23:22:13;;;;;;;8.43;1.85;;;;;;;;;;5071096;27;95262;-74
2022/07/07 23:24:39;;;;;;;9.60;2.28;;;;;;;;;;5060995;27;96793;-75
2022/07/07 23:27:06;;;;;;;10.50;1.77;;;;;;;;;;5062360;27;97476;-76
2022/07/07 23:29:33;;;;;;;7.78;1.67;;;;;;;;;;5071800;27;95452;-75
2022/07/07 23:31:59;;;;;;;7.05;2.05;;;;;;;;;;5067380;27;97419;-75
2022/07/07 23:34:26;;;;;;;5.45;1.63;;;;;;;;;;5064457;27;95472;-76
2022/07/07 23:36:52;;;;;;;11.05;2.38;;;;;;;;;;5062982;27;96814;-76
2022/07/07 23:39:18;;;;;;;6.32;1.60;;;;;;;;;;5070494;27;97090;-77
2022/07/07 23:41:45;;;;;;;8.20;1.83;;;;;;;;;;5056962;27;95633;-76
2022/07/07 23:44:11;;;;;;;8.30;1.80;;;;;;;;;;5070541;27;96727;-77
2022/07/07 23:46:37;;;;;;;10.25;1.65;;;;;;;;;;5065708;27;96433;-77
2022/07/07 23:49:04;;;;;;;7.43;1.83;;;;;;;;;;5063441;27;95213;-77
2022/07/07 23:51:30;;;;;;;10.90;1.58;;;;;;;;;;5058596;27;96594;-77
2022/07/07 23:53:57;;;;;;;12.95;1.92;;;;;;;;;;5061263;27;97330;-77
2022/07/07 23:56:23;;;;;;;7.30;1.73;;;;;;;;;;5058952;27;95730;-77
2022/07/07 23:58:49;;;;;;;7.80;1.80;;;;;;;;;;5064867;27;97389;-77
